sensor_id;sensor_type;location;lat;lon;timestamp;temperature;humidity
68251;DHT22;55066;51.560;4.642;2023-12-20T00:02:09;5.93;99.99
68251;DHT22;55066;51.560;4.642;2023-12-20T00:04:35;5.86;99.99
68251;DHT22;55066;51.560;4.642;2023-12-20T00:07:01;5.69;99.99
68251;DHT22;55066;51.560;4.642;2023-12-20T00:09:26;5.86;99.99
68251;DHT22;55066;51.560;4.642;2023-12-20T00:11:52;5.85;99.99
68251;DHT22;55066;51.560;4.642;2023-12-20T00:14:17;5.81;99.99
68251;DHT22;55066;51.560;4.642;2023-12-20T00:16:43;5.85;99.99
68251;DHT22;55066;51.560;4.642;2023-12-20T00:19:08;5.87;99.99
68251;DHT22;55066;51.560;4.642;2023-12-20T00:21:34;5.85;99.99
68251;DHT22;55066;51.560;4.642;2023-12-20T00:23:59;5.83;99.99
68251;DHT22;55066;51.560;4.642;2023-12-20T00:26:25;5.81;99.99
68251;DHT22;55066;51.560;4.642;2023-12-20T00:28:50;5.74;99.99
68251;DHT22;55066;51.560;4.642;2023-12-20T00:31:16;5.60;99.99
68251;DHT22;55066;51.560;4.642;2023-12-20T00:33:41;5.38;99.99
68251;DHT22;55066;51.560;4.642;2023-12-20T00:36:09;5.35;99.99
68251;DHT22;55066;51.560;4.642;2023-12-20T00:38:35;5.35;99.99
68251;DHT22;55066;51.560;4.642;2023-12-20T00:41:00;5.52;99.99
68251;DHT22;55066;51.560;4.642;2023-12-20T00:43:26;5.55;99.99
68251;DHT22;55066;51.560;4.642;2023-12-20T00:45:52;5.42;99.99
68251;DHT22;55066;51.560;4.642;2023-12-20T00:48:17;5.51;99.99
68251;DHT22;55066;51.560;4.642;2023-12-20T00:50:42;5.38;99.99
68251;DHT22;55066;51.560;4.642;2023-12-20T00:53:08;5.38;99.99
68251;DHT22;55066;51.560;4.642;2023-12-20T00:55:34;5.55;99.99
68251;DHT22;55066;51.560;4.642;2023-12-20T00:57:59;5.49;99.99
68251;DHT22;55066;51.560;4.642;2023-12-20T01:00:25;5.49;99.99
68251;DHT22;55066;51.560;4.642;2023-12-20T01:02:51;5.48;99.99
68251;DHT22;55066;51.560;4.642;2023-12-20T01:05:17;5.51;99.99
68251;DHT22;55066;51.560;4.642;2023-12-20T01:07:43;5.56;99.99
68251;DHT22;55066;51.560;4.642;2023-12-20T01:10:08;5.53;99.99
68251;DHT22;55066;51.560;4.642;2023-12-20T01:12:35;5.51;99.99
68251;DHT22;55066;51.560;4.642;2023-12-20T01:15:01;5.34;99.99
68251;DHT22;55066;51.560;4.642;2023-12-20T01:17:26;5.36;99.99
68251;DHT22;55066;51.560;4.642;2023-12-20T01:19:52;5.32;99.99
68251;DHT22;55066;51.560;4.642;2023-12-20T01:22:17;5.31;99.99
68251;DHT22;55066;51.560;4.642;2023-12-20T01:24:43;5.11;99.99
68251;DHT22;55066;51.560;4.642;2023-12-20T01:27:08;5.18;99.99
68251;DHT22;55066;51.560;4.642;2023-12-20T01:29:34;5.48;99.99
68251;DHT22;55066;51.560;4.642;2023-12-20T01:31:59;5.42;99.99
68251;DHT22;55066;51.560;4.642;2023-12-20T01:34:25;5.36;99.99
68251;DHT22;55066;51.560;4.642;2023-12-20T01:36:50;5.46;99.99
68251;DHT22;55066;51.560;4.642;2023-12-20T01:39:17;5.43;99.99
68251;DHT22;55066;51.560;4.642;2023-12-20T01:41:42;5.32;99.99
68251;DHT22;55066;51.560;4.642;2023-12-20T01:44:08;5.24;99.99
68251;DHT22;55066;51.560;4.642;2023-12-20T01:46:33;5.24;99.99
68251;DHT22;55066;51.560;4.642;2023-12-20T01:48:59;5.38;99.99
68251;DHT22;55066;51.560;4.642;2023-12-20T01:51:25;5.42;99.99
68251;DHT22;55066;51.560;4.642;2023-12-20T01:53:54;5.55;99.99
68251;DHT22;55066;51.560;4.642;2023-12-20T01:56:20;5.55;99.99
68251;DHT22;55066;51.560;4.642;2023-12-20T01:58:46;5.52;99.99
68251;DHT22;55066;51.560;4.642;2023-12-20T02:01:13;5.58;99.99
68251;DHT22;55066;51.560;4.642;2023-12-20T02:03:42;5.56;99.99
68251;DHT22;55066;51.560;4.642;2023-12-20T02:06:09;5.66;99.99
68251;DHT22;55066;51.560;4.642;2023-12-20T02:08:35;5.67;99.99
68251;DHT22;55066;51.560;4.642;2023-12-20T02:11:01;5.63;99.99
68251;DHT22;55066;51.560;4.642;2023-12-20T02:13:27;5.62;99.99
68251;DHT22;55066;51.560;4.642;2023-12-20T02:15:53;5.65;99.99
68251;DHT22;55066;51.560;4.642;2023-12-20T02:18:19;5.63;99.99
68251;DHT22;55066;51.560;4.642;2023-12-20T02:20:45;5.66;99.99
68251;DHT22;55066;51.560;4.642;2023-12-20T02:23:10;5.81;99.99
68251;DHT22;55066;51.560;4.642;2023-12-20T02:25:36;5.76;99.99
68251;DHT22;55066;51.560;4.642;2023-12-20T02:28:03;5.70;99.99
68251;DHT22;55066;51.560;4.642;2023-12-20T02:30:28;5.70;99.99
68251;DHT22;55066;51.560;4.642;2023-12-20T02:32:54;5.77;99.99
68251;DHT22;55066;51.560;4.642;2023-12-20T02:35:20;5.86;99.99
68251;DHT22;55066;51.560;4.642;2023-12-20T02:37:45;5.86;99.99
68251;DHT22;55066;51.560;4.642;2023-12-20T02:40:11;5.90;99.99
68251;DHT22;55066;51.560;4.642;2023-12-20T02:42:36;5.90;99.99
68251;DHT22;55066;51.560;4.642;2023-12-20T02:45:02;6.07;99.99
68251;DHT22;55066;51.560;4.642;2023-12-20T02:47:27;6.00;99.99
68251;DHT22;55066;51.560;4.642;2023-12-20T02:49:55;5.98;99.99
68251;DHT22;55066;51.560;4.642;2023-12-20T02:52:21;6.07;99.99
68251;DHT22;55066;51.560;4.642;2023-12-20T02:54:47;6.14;99.99
68251;DHT22;55066;51.560;4.642;2023-12-20T02:57:12;6.31;99.99
68251;DHT22;55066;51.560;4.642;2023-12-20T02:59:38;6.21;99.99
68251;DHT22;55066;51.560;4.642;2023-12-20T03:02:03;6.24;99.99
68251;DHT22;55066;51.560;4.642;2023-12-20T03:04:28;6.10;99.99
68251;DHT22;55066;51.560;4.642;2023-12-20T03:06:54;6.16;99.99
68251;DHT22;55066;51.560;4.642;2023-12-20T03:09:19;6.14;99.99
68251;DHT22;55066;51.560;4.642;2023-12-20T03:11:46;6.07;99.99
68251;DHT22;55066;51.560;4.642;2023-12-20T03:14:11;6.11;99.99
68251;DHT22;55066;51.560;4.642;2023-12-20T03:16:37;6.17;99.99
68251;DHT22;55066;51.560;4.642;2023-12-20T03:19:03;6.20;99.99
68251;DHT22;55066;51.560;4.642;2023-12-20T03:21:28;6.25;99.99
68251;DHT22;55066;51.560;4.642;2023-12-20T03:23:54;6.22;99.99
68251;DHT22;55066;51.560;4.642;2023-12-20T03:26:19;6.04;99.99
68251;DHT22;55066;51.560;4.642;2023-12-20T03:28:45;5.97;99.99
68251;DHT22;55066;51.560;4.642;2023-12-20T03:31:10;5.86;99.99
68251;DHT22;55066;51.560;4.642;2023-12-20T03:33:36;5.73;99.99
68251;DHT22;55066;51.560;4.642;2023-12-20T03:36:02;5.63;99.99
68251;DHT22;55066;51.560;4.642;2023-12-20T03:38:27;5.56;99.99
68251;DHT22;55066;51.560;4.642;2023-12-20T03:40:53;5.80;99.99
68251;DHT22;55066;51.560;4.642;2023-12-20T03:43:18;5.62;99.99
68251;DHT22;55066;51.560;4.642;2023-12-20T03:45:44;5.71;99.99
68251;DHT22;55066;51.560;4.642;2023-12-20T03:48:10;5.56;99.99
68251;DHT22;55066;51.560;4.642;2023-12-20T03:50:36;5.58;99.99
68251;DHT22;55066;51.560;4.642;2023-12-20T03:53:02;5.70;99.99
68251;DHT22;55066;51.560;4.642;2023-12-20T03:55:30;5.79;99.99
68251;DHT22;55066;51.560;4.642;2023-12-20T03:57:57;5.77;99.99
68251;DHT22;55066;51.560;4.642;2023-12-20T04:00:22;5.80;99.99
68251;DHT22;55066;51.560;4.642;2023-12-20T04:02:47;5.86;99.99
68251;DHT22;55066;51.560;4.642;2023-12-20T04:05:13;5.85;99.99
68251;DHT22;55066;51.560;4.642;2023-12-20T04:07:38;5.83;99.99
68251;DHT22;55066;51.560;4.642;2023-12-20T04:10:05;5.74;99.99
68251;DHT22;55066;51.560;4.642;2023-12-20T04:12:32;5.59;99.99
68251;DHT22;55066;51.560;4.642;2023-12-20T04:14:57;5.55;99.99
68251;DHT22;55066;51.560;4.642;2023-12-20T04:17:23;5.60;99.99
68251;DHT22;55066;51.560;4.642;2023-12-20T04:19:49;5.60;99.99
68251;DHT22;55066;51.560;4.642;2023-12-20T04:22:15;5.48;99.99
68251;DHT22;55066;51.560;4.642;2023-12-20T04:24:41;5.55;99.99
68251;DHT22;55066;51.560;4.642;2023-12-20T04:27:07;5.55;99.99
68251;DHT22;55066;51.560;4.642;2023-12-20T04:29:33;5.39;99.99
68251;DHT22;55066;51.560;4.642;2023-12-20T04:31:59;5.35;99.99
68251;DHT22;55066;51.560;4.642;2023-12-20T04:34:24;5.52;99.99
68251;DHT22;55066;51.560;4.642;2023-12-20T04:36:51;5.53;99.99
68251;DHT22;55066;51.560;4.642;2023-12-20T04:39:17;5.45;99.99
68251;DHT22;55066;51.560;4.642;2023-12-20T04:41:42;5.48;99.99
68251;DHT22;55066;51.560;4.642;2023-12-20T04:44:07;5.45;99.99
68251;DHT22;55066;51.560;4.642;2023-12-20T04:46:33;5.34;99.99
68251;DHT22;55066;51.560;4.642;2023-12-20T04:48:58;5.41;99.99
68251;DHT22;55066;51.560;4.642;2023-12-20T04:51:24;5.15;99.99
68251;DHT22;55066;51.560;4.642;2023-12-20T04:53:49;5.25;99.99
68251;DHT22;55066;51.560;4.642;2023-12-20T04:56:15;5.11;99.99
68251;DHT22;55066;51.560;4.642;2023-12-20T04:58:42;5.03;99.99
68251;DHT22;55066;51.560;4.642;2023-12-20T05:01:08;5.21;99.99
68251;DHT22;55066;51.560;4.642;2023-12-20T05:03:34;5.07;99.99
68251;DHT22;55066;51.560;4.642;2023-12-20T05:06:00;5.28;99.99
68251;DHT22;55066;51.560;4.642;2023-12-20T05:08:25;5.28;99.99
68251;DHT22;55066;51.560;4.642;2023-12-20T05:10:53;5.21;99.99
68251;DHT22;55066;51.560;4.642;2023-12-20T05:13:19;5.13;99.99
68251;DHT22;55066;51.560;4.642;2023-12-20T05:15:45;5.24;99.99
68251;DHT22;55066;51.560;4.642;2023-12-20T05:18:10;5.24;99.99
68251;DHT22;55066;51.560;4.642;2023-12-20T05:20:35;5.28;99.99
68251;DHT22;55066;51.560;4.642;2023-12-20T05:23:01;5.30;99.99
68251;DHT22;55066;51.560;4.642;2023-12-20T05:25:26;5.27;99.99
68251;DHT22;55066;51.560;4.642;2023-12-20T05:27:52;5.43;99.99
68251;DHT22;55066;51.560;4.642;2023-12-20T05:30:18;5.34;99.99
68251;DHT22;55066;51.560;4.642;2023-12-20T05:32:43;5.34;99.99
68251;DHT22;55066;51.560;4.642;2023-12-20T05:35:08;5.45;99.99
68251;DHT22;55066;51.560;4.642;2023-12-20T05:37:34;5.58;99.99
68251;DHT22;55066;51.560;4.642;2023-12-20T05:39:59;5.55;99.99
68251;DHT22;55066;51.560;4.642;2023-12-20T05:42:25;5.49;99.99
68251;DHT22;55066;51.560;4.642;2023-12-20T05:44:50;5.49;99.99
68251;DHT22;55066;51.560;4.642;2023-12-20T05:47:16;5.53;99.99
68251;DHT22;55066;51.560;4.642;2023-12-20T05:49:43;5.56;99.99
68251;DHT22;55066;51.560;4.642;2023-12-20T05:52:09;5.52;99.99
68251;DHT22;55066;51.560;4.642;2023-12-20T05:54:34;5.41;99.99
68251;DHT22;55066;51.560;4.642;2023-12-20T05:57:00;5.43;99.99
68251;DHT22;55066;51.560;4.642;2023-12-20T05:59:26;5.34;99.99
68251;DHT22;55066;51.560;4.642;2023-12-20T06:01:51;5.32;99.99
68251;DHT22;55066;51.560;4.642;2023-12-20T06:04:17;5.53;99.99
68251;DHT22;55066;51.560;4.642;2023-12-20T06:06:42;5.39;99.99
68251;DHT22;55066;51.560;4.642;2023-12-20T06:09:08;5.49;99.99
68251;DHT22;55066;51.560;4.642;2023-12-20T06:11:34;5.51;99.99
68251;DHT22;55066;51.560;4.642;2023-12-20T06:13:59;5.46;99.99
68251;DHT22;55066;51.560;4.642;2023-12-20T06:16:24;5.43;99.99
68251;DHT22;55066;51.560;4.642;2023-12-20T06:18:50;5.45;99.99
68251;DHT22;55066;51.560;4.642;2023-12-20T06:21:16;5.55;99.99
68251;DHT22;55066;51.560;4.642;2023-12-20T06:23:42;5.55;99.99
68251;DHT22;55066;51.560;4.642;2023-12-20T06:26:07;5.56;99.99
68251;DHT22;55066;51.560;4.642;2023-12-20T06:28:33;5.35;99.99
68251;DHT22;55066;51.560;4.642;2023-12-20T06:30:58;5.21;99.99
68251;DHT22;55066;51.560;4.642;2023-12-20T06:33:24;5.22;99.99
68251;DHT22;55066;51.560;4.642;2023-12-20T06:35:50;5.28;99.99
68251;DHT22;55066;51.560;4.642;2023-12-20T06:38:17;5.43;99.99
68251;DHT22;55066;51.560;4.642;2023-12-20T06:40:43;5.39;99.99
68251;DHT22;55066;51.560;4.642;2023-12-20T06:43:08;5.39;99.99
68251;DHT22;55066;51.560;4.642;2023-12-20T06:45:35;5.51;99.99
68251;DHT22;55066;51.560;4.642;2023-12-20T06:48:00;5.27;99.99
68251;DHT22;55066;51.560;4.642;2023-12-20T06:50:26;5.22;99.99
68251;DHT22;55066;51.560;4.642;2023-12-20T06:52:52;5.21;99.99
68251;DHT22;55066;51.560;4.642;2023-12-20T06:55:18;5.34;99.99
68251;DHT22;55066;51.560;4.642;2023-12-20T06:57:43;5.30;99.99
68251;DHT22;55066;51.560;4.642;2023-12-20T07:00:11;5.20;99.99
68251;DHT22;55066;51.560;4.642;2023-12-20T07:02:36;5.14;99.99
68251;DHT22;55066;51.560;4.642;2023-12-20T07:05:02;5.18;99.99
68251;DHT22;55066;51.560;4.642;2023-12-20T07:07:28;5.07;99.99
68251;DHT22;55066;51.560;4.642;2023-12-20T07:09:53;5.14;99.99
68251;DHT22;55066;51.560;4.642;2023-12-20T07:12:19;5.39;99.99
68251;DHT22;55066;51.560;4.642;2023-12-20T07:14:46;5.30;99.99
68251;DHT22;55066;51.560;4.642;2023-12-20T07:17:11;5.22;99.99
68251;DHT22;55066;51.560;4.642;2023-12-20T07:19:39;5.17;99.99
68251;DHT22;55066;51.560;4.642;2023-12-20T07:22:06;5.05;99.99
68251;DHT22;55066;51.560;4.642;2023-12-20T07:24:31;4.94;99.99
68251;DHT22;55066;51.560;4.642;2023-12-20T07:26:57;4.93;99.99
68251;DHT22;55066;51.560;4.642;2023-12-20T07:29:22;4.90;99.99
68251;DHT22;55066;51.560;4.642;2023-12-20T07:31:48;4.98;99.99
68251;DHT22;55066;51.560;4.642;2023-12-20T07:34:13;4.93;99.99
68251;DHT22;55066;51.560;4.642;2023-12-20T07:36:39;4.98;99.99
68251;DHT22;55066;51.560;4.642;2023-12-20T07:39:06;5.00;99.99
68251;DHT22;55066;51.560;4.642;2023-12-20T07:41:31;4.94;99.99
68251;DHT22;55066;51.560;4.642;2023-12-20T07:43:57;5.03;99.99
68251;DHT22;55066;51.560;4.642;2023-12-20T07:46:23;5.08;99.99
68251;DHT22;55066;51.560;4.642;2023-12-20T07:48:50;5.14;99.99
68251;DHT22;55066;51.560;4.642;2023-12-20T07:51:15;5.13;99.99
68251;DHT22;55066;51.560;4.642;2023-12-20T07:53:42;5.03;99.99
68251;DHT22;55066;51.560;4.642;2023-12-20T07:56:17;5.11;99.99
68251;DHT22;55066;51.560;4.642;2023-12-20T07:58:43;5.17;99.99
68251;DHT22;55066;51.560;4.642;2023-12-20T08:01:10;5.22;99.99
68251;DHT22;55066;51.560;4.642;2023-12-20T08:03:35;5.25;99.99
68251;DHT22;55066;51.560;4.642;2023-12-20T08:06:02;5.30;99.99
68251;DHT22;55066;51.560;4.642;2023-12-20T08:08:27;5.31;99.99
68251;DHT22;55066;51.560;4.642;2023-12-20T08:10:53;5.31;99.99
68251;DHT22;55066;51.560;4.642;2023-12-20T08:13:22;5.46;99.99
68251;DHT22;55066;51.560;4.642;2023-12-20T08:15:51;5.60;99.99
68251;DHT22;55066;51.560;4.642;2023-12-20T08:18:17;5.77;99.99
68251;DHT22;55066;51.560;4.642;2023-12-20T08:20:43;5.81;99.99
68251;DHT22;55066;51.560;4.642;2023-12-20T08:23:08;5.76;99.99
68251;DHT22;55066;51.560;4.642;2023-12-20T08:25:34;5.73;99.99
68251;DHT22;55066;51.560;4.642;2023-12-20T08:27:59;5.71;99.99
68251;DHT22;55066;51.560;4.642;2023-12-20T08:30:25;5.69;99.99
68251;DHT22;55066;51.560;4.642;2023-12-20T08:32:50;5.69;99.99
68251;DHT22;55066;51.560;4.642;2023-12-20T08:35:16;5.73;99.99
68251;DHT22;55066;51.560;4.642;2023-12-20T08:37:41;5.71;99.99
68251;DHT22;55066;51.560;4.642;2023-12-20T08:40:07;5.60;99.99
68251;DHT22;55066;51.560;4.642;2023-12-20T08:42:32;5.59;99.99
68251;DHT22;55066;51.560;4.642;2023-12-20T08:44:58;5.56;99.99
68251;DHT22;55066;51.560;4.642;2023-12-20T08:47:24;5.59;99.99
68251;DHT22;55066;51.560;4.642;2023-12-20T08:49:50;5.49;99.99
68251;DHT22;55066;51.560;4.642;2023-12-20T08:52:16;5.46;99.99
68251;DHT22;55066;51.560;4.642;2023-12-20T08:54:41;5.62;99.99
68251;DHT22;55066;51.560;4.642;2023-12-20T08:57:06;5.79;99.99
68251;DHT22;55066;51.560;4.642;2023-12-20T08:59:33;5.91;99.99
68251;DHT22;55066;51.560;4.642;2023-12-20T09:02:00;6.00;99.99
68251;DHT22;55066;51.560;4.642;2023-12-20T09:04:25;6.08;99.99
68251;DHT22;55066;51.560;4.642;2023-12-20T09:06:51;6.16;99.99
68251;DHT22;55066;51.560;4.642;2023-12-20T09:09:17;6.21;99.99
68251;DHT22;55066;51.560;4.642;2023-12-20T09:11:43;6.22;99.99
68251;DHT22;55066;51.560;4.642;2023-12-20T09:14:11;6.31;99.99
68251;DHT22;55066;51.560;4.642;2023-12-20T09:16:36;6.35;99.99
68251;DHT22;55066;51.560;4.642;2023-12-20T09:19:02;6.36;99.99
68251;DHT22;55066;51.560;4.642;2023-12-20T09:21:27;6.36;99.99
68251;DHT22;55066;51.560;4.642;2023-12-20T09:23:53;6.39;99.99
68251;DHT22;55066;51.560;4.642;2023-12-20T09:26:18;6.39;99.99
68251;DHT22;55066;51.560;4.642;2023-12-20T09:28:44;6.44;99.99
68251;DHT22;55066;51.560;4.642;2023-12-20T09:31:10;6.46;99.99
68251;DHT22;55066;51.560;4.642;2023-12-20T09:33:35;6.56;99.99
68251;DHT22;55066;51.560;4.642;2023-12-20T09:36:01;6.61;99.99
68251;DHT22;55066;51.560;4.642;2023-12-20T09:38:26;6.62;99.99
68251;DHT22;55066;51.560;4.642;2023-12-20T09:40:52;6.71;99.99
68251;DHT22;55066;51.560;4.642;2023-12-20T09:43:20;6.75;99.99
68251;DHT22;55066;51.560;4.642;2023-12-20T09:45:47;6.86;99.99
68251;DHT22;55066;51.560;4.642;2023-12-20T09:48:13;6.92;99.99
68251;DHT22;55066;51.560;4.642;2023-12-20T09:50:41;6.87;99.99
68251;DHT22;55066;51.560;4.642;2023-12-20T09:53:08;6.89;99.99
68251;DHT22;55066;51.560;4.642;2023-12-20T09:55:36;6.90;99.99
68251;DHT22;55066;51.560;4.642;2023-12-20T09:58:02;6.87;99.99
68251;DHT22;55066;51.560;4.642;2023-12-20T10:00:27;6.90;99.99
68251;DHT22;55066;51.560;4.642;2023-12-20T10:02:57;6.94;99.99
68251;DHT22;55066;51.560;4.642;2023-12-20T10:05:30;7.00;99.99
68251;DHT22;55066;51.560;4.642;2023-12-20T10:07:56;7.01;99.99
68251;DHT22;55066;51.560;4.642;2023-12-20T10:10:22;7.00;99.99
68251;DHT22;55066;51.560;4.642;2023-12-20T10:13:02;7.03;99.99
68251;DHT22;55066;51.560;4.642;2023-12-20T10:15:28;6.97;99.99
68251;DHT22;55066;51.560;4.642;2023-12-20T10:17:53;7.07;99.99
68251;DHT22;55066;51.560;4.642;2023-12-20T10:20:20;7.10;99.99
68251;DHT22;55066;51.560;4.642;2023-12-20T10:22:46;7.20;99.99
68251;DHT22;55066;51.560;4.642;2023-12-20T10:25:12;7.21;99.99
68251;DHT22;55066;51.560;4.642;2023-12-20T10:27:37;7.24;99.99
68251;DHT22;55066;51.560;4.642;2023-12-20T10:30:03;7.24;99.99
68251;DHT22;55066;51.560;4.642;2023-12-20T10:32:31;7.31;99.99
68251;DHT22;55066;51.560;4.642;2023-12-20T10:34:57;7.31;99.99
68251;DHT22;55066;51.560;4.642;2023-12-20T10:37:22;7.34;99.99
68251;DHT22;55066;51.560;4.642;2023-12-20T10:39:53;7.42;99.99
68251;DHT22;55066;51.560;4.642;2023-12-20T10:42:30;7.39;99.99
68251;DHT22;55066;51.560;4.642;2023-12-20T10:44:56;7.44;99.99
68251;DHT22;55066;51.560;4.642;2023-12-20T10:47:22;7.47;99.99
68251;DHT22;55066;51.560;4.642;2023-12-20T10:49:52;7.52;99.99
68251;DHT22;55066;51.560;4.642;2023-12-20T10:52:17;7.56;99.99
68251;DHT22;55066;51.560;4.642;2023-12-20T10:54:44;7.59;99.99
68251;DHT22;55066;51.560;4.642;2023-12-20T10:57:10;7.62;99.99
68251;DHT22;55066;51.560;4.642;2023-12-20T10:59:37;7.61;99.99
68251;DHT22;55066;51.560;4.642;2023-12-20T11:02:04;7.63;99.99
68251;DHT22;55066;51.560;4.642;2023-12-20T11:04:51;7.65;99.99
68251;DHT22;55066;51.560;4.642;2023-12-20T11:07:25;7.73;99.99
68251;DHT22;55066;51.560;4.642;2023-12-20T11:10:13;7.69;99.99
68251;DHT22;55066;51.560;4.642;2023-12-20T11:12:48;7.75;99.99
68251;DHT22;55066;51.560;4.642;2023-12-20T11:15:17;7.75;99.99
68251;DHT22;55066;51.560;4.642;2023-12-20T11:17:46;7.79;99.99
68251;DHT22;55066;51.560;4.642;2023-12-20T11:20:12;7.91;99.99
68251;DHT22;55066;51.560;4.642;2023-12-20T11:22:39;7.98;99.99
68251;DHT22;55066;51.560;4.642;2023-12-20T11:25:18;8.05;99.99
68251;DHT22;55066;51.560;4.642;2023-12-20T11:27:44;8.01;99.99
68251;DHT22;55066;51.560;4.642;2023-12-20T11:30:10;8.11;99.99
68251;DHT22;55066;51.560;4.642;2023-12-20T11:32:37;8.27;99.99
68251;DHT22;55066;51.560;4.642;2023-12-20T11:37:36;8.24;99.99
68251;DHT22;55066;51.560;4.642;2023-12-20T11:40:05;8.30;99.99
68251;DHT22;55066;51.560;4.642;2023-12-20T11:42:41;8.30;99.99
68251;DHT22;55066;51.560;4.642;2023-12-20T11:45:15;8.28;99.99
68251;DHT22;55066;51.560;4.642;2023-12-20T11:47:42;8.37;99.99
68251;DHT22;55066;51.560;4.642;2023-12-20T11:50:08;8.34;99.99
68251;DHT22;55066;51.560;4.642;2023-12-20T11:52:35;8.42;99.99
68251;DHT22;55066;51.560;4.642;2023-12-20T11:55:00;8.45;99.99
68251;DHT22;55066;51.560;4.642;2023-12-20T11:57:26;8.37;99.99
68251;DHT22;55066;51.560;4.642;2023-12-20T11:59:51;8.56;99.99
68251;DHT22;55066;51.560;4.642;2023-12-20T12:02:17;8.75;99.99
68251;DHT22;55066;51.560;4.642;2023-12-20T12:04:42;8.89;99.99
68251;DHT22;55066;51.560;4.642;2023-12-20T12:07:08;8.89;99.99
68251;DHT22;55066;51.560;4.642;2023-12-20T12:09:35;8.79;99.99
68251;DHT22;55066;51.560;4.642;2023-12-20T12:12:01;8.77;99.99
68251;DHT22;55066;51.560;4.642;2023-12-20T12:14:26;8.73;99.99
68251;DHT22;55066;51.560;4.642;2023-12-20T12:16:53;8.84;99.99
68251;DHT22;55066;51.560;4.642;2023-12-20T12:19:24;8.72;99.99
68251;DHT22;55066;51.560;4.642;2023-12-20T12:21:50;8.79;99.99
68251;DHT22;55066;51.560;4.642;2023-12-20T12:24:20;8.68;99.99
68251;DHT22;55066;51.560;4.642;2023-12-20T12:26:50;8.90;99.99
68251;DHT22;55066;51.560;4.642;2023-12-20T12:29:16;8.83;99.99
68251;DHT22;55066;51.560;4.642;2023-12-20T12:31:42;8.68;99.99
68251;DHT22;55066;51.560;4.642;2023-12-20T12:34:07;8.69;99.99
68251;DHT22;55066;51.560;4.642;2023-12-20T12:36:35;8.73;99.99
68251;DHT22;55066;51.560;4.642;2023-12-20T12:39:03;8.75;99.99
68251;DHT22;55066;51.560;4.642;2023-12-20T12:41:31;8.75;99.99
68251;DHT22;55066;51.560;4.642;2023-12-20T12:43:57;8.70;99.99
68251;DHT22;55066;51.560;4.642;2023-12-20T12:46:23;8.66;99.99
68251;DHT22;55066;51.560;4.642;2023-12-20T12:48:49;8.66;99.99
68251;DHT22;55066;51.560;4.642;2023-12-20T12:51:15;8.68;99.99
68251;DHT22;55066;51.560;4.642;2023-12-20T12:53:41;8.79;99.99
68251;DHT22;55066;51.560;4.642;2023-12-20T12:56:07;8.80;99.99
68251;DHT22;55066;51.560;4.642;2023-12-20T12:58:33;8.77;99.99
68251;DHT22;55066;51.560;4.642;2023-12-20T13:00:59;8.86;99.99
68251;DHT22;55066;51.560;4.642;2023-12-20T13:03:24;8.81;99.99
68251;DHT22;55066;51.560;4.642;2023-12-20T13:05:50;8.73;99.99
68251;DHT22;55066;51.560;4.642;2023-12-20T13:08:17;8.80;99.99
68251;DHT22;55066;51.560;4.642;2023-12-20T13:10:43;8.84;99.99
68251;DHT22;55066;51.560;4.642;2023-12-20T13:13:09;8.81;99.99
68251;DHT22;55066;51.560;4.642;2023-12-20T13:15:35;8.77;99.99
68251;DHT22;55066;51.560;4.642;2023-12-20T13:18:00;8.84;99.99
68251;DHT22;55066;51.560;4.642;2023-12-20T13:20:26;8.87;99.99
68251;DHT22;55066;51.560;4.642;2023-12-20T13:22:51;8.89;99.99
68251;DHT22;55066;51.560;4.642;2023-12-20T13:25:16;8.84;99.99
68251;DHT22;55066;51.560;4.642;2023-12-20T13:27:42;8.86;99.99
68251;DHT22;55066;51.560;4.642;2023-12-20T13:30:09;8.84;99.99
68251;DHT22;55066;51.560;4.642;2023-12-20T13:32:34;8.84;99.99
68251;DHT22;55066;51.560;4.642;2023-12-20T13:35:01;8.84;99.99
68251;DHT22;55066;51.560;4.642;2023-12-20T13:37:26;8.83;99.99
68251;DHT22;55066;51.560;4.642;2023-12-20T13:39:52;8.72;99.99
68251;DHT22;55066;51.560;4.642;2023-12-20T13:42:17;8.79;99.99
68251;DHT22;55066;51.560;4.642;2023-12-20T13:44:42;8.76;99.99
68251;DHT22;55066;51.560;4.642;2023-12-20T13:47:09;8.77;99.99
68251;DHT22;55066;51.560;4.642;2023-12-20T13:49:34;8.84;99.99
68251;DHT22;55066;51.560;4.642;2023-12-20T13:52:00;8.83;99.99
68251;DHT22;55066;51.560;4.642;2023-12-20T13:54:26;8.89;99.99
68251;DHT22;55066;51.560;4.642;2023-12-20T13:56:51;8.83;99.99
68251;DHT22;55066;51.560;4.642;2023-12-20T13:59:17;8.80;99.99
68251;DHT22;55066;51.560;4.642;2023-12-20T14:01:42;8.79;99.99
68251;DHT22;55066;51.560;4.642;2023-12-20T14:04:08;8.83;99.99
68251;DHT22;55066;51.560;4.642;2023-12-20T14:06:36;8.77;99.99
68251;DHT22;55066;51.560;4.642;2023-12-20T14:09:02;8.80;99.99
68251;DHT22;55066;51.560;4.642;2023-12-20T14:11:28;8.84;99.99
68251;DHT22;55066;51.560;4.642;2023-12-20T14:13:54;8.83;99.99
68251;DHT22;55066;51.560;4.642;2023-12-20T14:16:24;8.80;99.99
68251;DHT22;55066;51.560;4.642;2023-12-20T14:18:49;8.81;99.99
68251;DHT22;55066;51.560;4.642;2023-12-20T14:21:18;8.79;99.99
68251;DHT22;55066;51.560;4.642;2023-12-20T14:23:45;8.79;99.99
68251;DHT22;55066;51.560;4.642;2023-12-20T14:26:11;8.77;99.99
68251;DHT22;55066;51.560;4.642;2023-12-20T14:28:41;8.77;99.99
68251;DHT22;55066;51.560;4.642;2023-12-20T14:31:07;8.77;99.99
68251;DHT22;55066;51.560;4.642;2023-12-20T14:33:34;8.75;99.99
68251;DHT22;55066;51.560;4.642;2023-12-20T14:36:00;8.76;99.99
68251;DHT22;55066;51.560;4.642;2023-12-20T14:38:26;8.77;99.99
68251;DHT22;55066;51.560;4.642;2023-12-20T14:40:53;8.75;99.99
68251;DHT22;55066;51.560;4.642;2023-12-20T14:43:18;8.73;99.99
68251;DHT22;55066;51.560;4.642;2023-12-20T14:45:44;8.72;99.99
68251;DHT22;55066;51.560;4.642;2023-12-20T14:48:09;8.70;99.99
68251;DHT22;55066;51.560;4.642;2023-12-20T14:50:35;8.72;99.99
68251;DHT22;55066;51.560;4.642;2023-12-20T14:53:02;8.66;99.99
68251;DHT22;55066;51.560;4.642;2023-12-20T14:55:27;8.63;99.99
68251;DHT22;55066;51.560;4.642;2023-12-20T14:57:54;8.63;99.99
68251;DHT22;55066;51.560;4.642;2023-12-20T15:00:20;8.61;99.99
68251;DHT22;55066;51.560;4.642;2023-12-20T15:02:46;8.59;99.99
68251;DHT22;55066;51.560;4.642;2023-12-20T15:05:11;8.62;99.99
68251;DHT22;55066;51.560;4.642;2023-12-20T15:07:36;8.59;99.99
68251;DHT22;55066;51.560;4.642;2023-12-20T15:10:03;8.53;99.99
68251;DHT22;55066;51.560;4.642;2023-12-20T15:12:28;8.52;99.99
68251;DHT22;55066;51.560;4.642;2023-12-20T15:14:54;8.53;99.99
68251;DHT22;55066;51.560;4.642;2023-12-20T15:17:20;8.59;99.99
68251;DHT22;55066;51.560;4.642;2023-12-20T15:19:45;8.55;99.99
68251;DHT22;55066;51.560;4.642;2023-12-20T15:22:11;8.55;99.99
68251;DHT22;55066;51.560;4.642;2023-12-20T15:24:37;8.49;99.99
68251;DHT22;55066;51.560;4.642;2023-12-20T15:27:06;8.58;99.99
68251;DHT22;55066;51.560;4.642;2023-12-20T15:29:32;8.49;99.99
68251;DHT22;55066;51.560;4.642;2023-12-20T15:31:58;8.45;99.99
68251;DHT22;55066;51.560;4.642;2023-12-20T15:34:23;8.41;99.99
68251;DHT22;55066;51.560;4.642;2023-12-20T15:36:48;8.38;99.99
68251;DHT22;55066;51.560;4.642;2023-12-20T15:39:14;8.30;99.99
68251;DHT22;55066;51.560;4.642;2023-12-20T15:41:40;8.28;99.99